Time;durP1;ratioP1;P1;durP2;ratioP2;P2;SDS_P1;SDS_P2;PMS_P1;PMS_P2;Temp;Humidity;BMP_temperature;BMP_pressure;BME280_temperature;BME280_humidity;BME280_pressure;Samples;Min_cycle;Max_cycle;Signal;HPM_P1;HPM_P2
2023/09/12 00:01:05;;;;;;;;;;;;;;;18.84;90.88;100120.18;668210;1262;126360;-79
2023/09/12 00:16:12;;;;;;;;;;;;;;;18.82;90.56;100114.25;672310;1262;126924;-79
2023/09/12 00:31:15;;;;;;;;;;;;;;;18.66;91.32;100106.23;672281;1262;125963;-78
2023/09/12 00:46:19;;;;;;;;;;;;;;;18.45;92.48;100100.27;669687;1262;125789;-79
2023/09/12 01:01:23;;;;;;;;;;;;;;;18.33;92.08;100095.20;668766;1263;125284;-78
2023/09/12 01:16:26;;;;;;;;;;;;;;;18.23;92.00;100094.30;669466;1263;125874;-78
2023/09/12 01:31:31;;;;;;;;;;;;;;;18.11;91.44;100089.09;670275;1262;125194;-79
2023/09/12 01:46:35;;;;;;;;;;;;;;;17.99;90.76;100089.95;668696;1266;125802;-78
2023/09/12 02:01:39;;;;;;;;;;;;;;;17.82;91.20;100086.19;669448;1260;129505;-79
2023/09/12 02:16:42;;;;;;;;;;;;;;;17.69;91.39;100081.11;673010;1272;126858;-79
2023/09/12 02:31:46;;;;;;;;;;;;;;;17.51;91.75;100088.20;676577;1263;125690;-80
2023/09/12 02:46:51;;;;;;;;;;;;;;;17.33;91.64;100087.49;674413;1263;126694;-79
2023/09/12 03:01:54;;;;;;;;;;;;;;;17.22;91.96;100092.16;672392;1267;125648;-78
2023/09/12 03:16:58;;;;;;;;;;;;;;;17.19;91.46;100096.80;668372;1262;125645;-78
2023/09/12 03:32:01;;;;;;;;;;;;;;;17.05;91.65;100101.39;668666;1263;126418;-79
2023/09/12 03:47:06;;;;;;;;;;;;;;;16.91;91.96;100104.40;673173;1262;125957;-79
2023/09/12 04:02:10;;;;;;;;;;;;;;;16.79;92.16;100111.16;672278;1263;125457;-79
2023/09/12 04:17:14;;;;;;;;;;;;;;;16.65;92.47;100113.48;672906;1262;126072;-79
2023/09/12 04:32:23;;;;;;;;;;;;;;;16.63;92.47;100118.33;673046;1268;125811;-79
2023/09/12 04:47:27;;;;;;;;;;;;;;;16.70;92.65;100118.08;672946;1276;125959;-78
2023/09/12 05:02:31;;;;;;;;;;;;;;;16.77;93.16;100126.17;668832;1264;125518;-79
2023/09/12 05:17:34;;;;;;;;;;;;;;;17.30;92.43;100120.17;672022;1266;125998;-80
2023/09/12 05:32:37;;;;;;;;;;;;;;;18.33;89.70;100126.40;673052;1269;126135;-79
2023/09/12 05:47:41;;;;;;;;;;;;;;;18.90;87.69;100131.48;673881;1264;125123;-80
2023/09/12 06:02:45;;;;;;;;;;;;;;;19.91;86.63;100130.63;673091;1272;125855;-81
2023/09/12 06:17:49;;;;;;;;;;;;;;;24.26;80.11;100139.47;672919;1272;125807;-79
2023/09/12 06:32:53;;;;;;;;;;;;;;;27.23;72.64;100152.73;673128;1262;126351;-78
2023/09/12 06:47:56;;;;;;;;;;;;;;;28.80;68.22;100162.73;670339;1263;125968;-80
2023/09/12 07:02:59;;;;;;;;;;;;;;;30.26;65.72;100159.45;672867;1271;125109;-79
2023/09/12 07:18:04;;;;;;;;;;;;;;;31.89;63.91;100159.92;673053;1262;125684;-79
2023/09/12 07:33:07;;;;;;;;;;;;;;;33.20;62.92;100164.14;673277;1264;124411;-78
2023/09/12 07:48:11;;;;;;;;;;;;;;;35.24;60.96;100163.71;673690;1262;125997;-77
2023/09/12 08:03:17;;;;;;;;;;;;;;;35.45;56.75;100149.31;672009;1263;124230;-77
2023/09/12 08:18:21;;;;;;;;;;;;;;;35.68;54.23;100151.94;668684;1276;125399;-78
2023/09/12 08:33:24;;;;;;;;;;;;;;;36.14;53.72;100155.01;672639;1267;125343;-77
2023/09/12 08:48:29;;;;;;;;;;;;;;;37.12;52.99;100148.81;670104;1263;125622;-76
2023/09/12 09:03:32;;;;;;;;;;;;;;;36.96;52.13;100152.15;668060;1264;125852;-75
2023/09/12 09:18:55;;;;;;;;;;;;;;;37.12;50.93;100144.66;668126;1262;125437;-76
2023/09/12 09:33:59;;;;;;;;;;;;;;;36.47;50.21;100138.11;667880;1261;125431;-75
2023/09/12 09:49:02;;;;;;;;;;;;;;;36.61;50.18;100140.27;667960;1263;125698;-75
2023/09/12 10:04:06;;;;;;;;;;;;;;;36.74;49.95;100137.27;668002;1261;124875;-76
2023/09/12 10:23:27;;;;;;;;;;;;;;;37.39;48.75;100125.89;648391;1298;544079;-77
2023/09/12 10:38:32;;;;;;;;;;;;;;;36.84;47.24;100121.34;662534;1277;125407;-77
2023/09/12 10:53:36;;;;;;;;;;;;;;;36.39;45.63;100112.35;663143;1270;125164;-78
2023/09/12 11:08:40;;;;;;;;;;;;;;;36.47;46.92;100107.73;666947;1276;124595;-78
2023/09/12 11:23:53;;;;;;;;;;;;;;;36.89;46.87;100107.80;664508;1274;124791;-77
2023/09/12 11:39:02;;;;;;;;;;;;;;;36.99;45.89;100085.79;664821;1275;124614;-76
2023/09/12 11:54:05;;;;;;;;;;;;;;;36.80;45.10;100080.65;664706;1270;124218;-76
2023/09/12 12:09:09;;;;;;;;;;;;;;;36.57;45.93;100076.89;664464;1275;125048;-75
2023/09/12 12:24:14;;;;;;;;;;;;;;;36.56;45.67;100072.64;664131;1277;125928;-75
2023/09/12 12:39:18;;;;;;;;;;;;;;;35.76;43.86;100059.86;666233;1275;126011;-75
2023/09/12 12:54:22;;;;;;;;;;;;;;;35.30;43.72;100053.84;668530;1271;125314;-75
2023/09/12 13:09:27;;;;;;;;;;;;;;;34.45;43.68;100058.70;667083;1271;125033;-74
2023/09/12 13:24:31;;;;;;;;;;;;;;;33.80;44.65;100054.57;671634;1274;124818;-76
2023/09/12 13:39:34;;;;;;;;;;;;;;;34.03;45.16;100056.41;667107;1275;126085;-75
2023/09/12 13:54:38;;;;;;;;;;;;;;;34.02;46.29;100046.55;663393;1275;124641;-76
2023/09/12 14:09:41;;;;;;;;;;;;;;;33.96;47.35;100041.41;666017;1274;125903;-78
2023/09/12 14:24:46;;;;;;;;;;;;;;;33.38;47.00;100041.23;665927;1272;126181;-78
2023/09/12 14:39:50;;;;;;;;;;;;;;;33.35;48.69;100033.38;664173;1270;125995;-76
2023/09/12 14:54:54;;;;;;;;;;;;;;;32.61;48.09;100025.20;667985;1270;126143;-76
2023/09/12 15:09:58;;;;;;;;;;;;;;;32.27;49.17;100020.95;664657;1268;125923;-78
2023/09/12 15:25:01;;;;;;;;;;;;;;;32.45;51.28;100016.81;664793;1272;125180;-76
2023/09/12 15:40:05;;;;;;;;;;;;;;;32.63;52.55;100021.66;664324;1271;124840;-75
2023/09/12 15:55:10;;;;;;;;;;;;;;;32.26;52.78;100009.13;664668;1270;126052;-76
2023/09/12 16:10:14;;;;;;;;;;;;;;;31.89;54.08;100018.51;666326;1268;126230;-76
2023/09/12 16:25:19;;;;;;;;;;;;;;;31.08;55.89;100034.11;667145;1268;125887;-78
2023/09/12 16:40:22;;;;;;;;;;;;;;;29.83;57.85;100038.36;670174;1268;125307;-79
2023/09/12 16:55:26;;;;;;;;;;;;;;;28.29;59.37;100040.56;669052;1268;125353;-78
2023/09/12 17:10:29;;;;;;;;;;;;;;;27.12;61.61;100042.11;668551;1269;127011;-78
2023/09/12 17:25:33;;;;;;;;;;;;;;;26.17;63.42;100043.95;668922;1267;124593;-78
2023/09/12 17:40:37;;;;;;;;;;;;;;;25.58;65.10;100039.52;669709;1264;124372;-77
2023/09/12 17:55:43;;;;;;;;;;;;;;;25.32;67.08;100051.38;668286;1268;125155;-78
2023/09/12 18:10:47;;;;;;;;;;;;;;;24.76;67.74;100067.57;672123;1267;125384;-78
2023/09/12 18:25:58;;;;;;;;;;;;;;;24.10;69.46;100071.59;668017;1268;125056;-77
2023/09/12 18:41:02;;;;;;;;;;;;;;;23.58;70.79;100071.95;665924;1266;125360;-77
2023/09/12 18:56:06;;;;;;;;;;;;;;;23.20;73.03;100073.92;666301;1265;124316;-78
2023/09/12 19:11:09;;;;;;;;;;;;;;;22.85;74.36;100070.99;674010;1270;124812;-77
2023/09/12 19:26:13;;;;;;;;;;;;;;;22.71;75.53;100068.22;666296;1271;125564;-78
2023/09/12 19:41:19;;;;;;;;;;;;;;;22.52;77.34;100060.38;666144;1270;124866;-77
2023/09/12 19:56:22;;;;;;;;;;;;;;;22.27;78.54;100054.03;666159;1271;125977;-76
2023/09/12 20:11:26;;;;;;;;;;;;;;;22.13;79.07;100059.30;666810;1270;127940;-78
2023/09/12 20:26:29;;;;;;;;;;;;;;;21.90;79.48;100060.42;670754;1272;126196;-78
2023/09/12 20:41:33;;;;;;;;;;;;;;;21.64;79.85;100064.88;669653;1270;126487;-79
2023/09/12 20:56:39;;;;;;;;;;;;;;;21.40;79.87;100067.47;668138;1270;126292;-78
2023/09/12 21:11:42;;;;;;;;;;;;;;;21.07;80.44;100062.33;670547;1270;126172;-78
2023/09/12 21:26:45;;;;;;;;;;;;;;;20.85;81.17;100062.79;666651;1271;125756;-77
2023/09/12 21:41:48;;;;;;;;;;;;;;;20.65;82.13;100069.61;666006;1270;125491;-78
2023/09/12 21:56:52;;;;;;;;;;;;;;;20.51;82.45;100062.08;667746;1270;127564;-77
2023/09/12 22:11:56;;;;;;;;;;;;;;;20.28;82.92;100060.06;667296;1280;126766;-76
2023/09/12 22:26:59;;;;;;;;;;;;;;;20.15;82.98;100060.76;666208;1270;193162;-76
2023/09/12 22:42:02;;;;;;;;;;;;;;;19.96;83.87;100066.92;665997;1280;126487;-76
2023/09/12 22:57:05;;;;;;;;;;;;;;;19.84;84.81;100063.70;665829;1270;126263;-76
2023/09/12 23:12:09;;;;;;;;;;;;;;;19.63;85.82;100063.25;665111;1269;126716;-76
2023/09/12 23:27:12;;;;;;;;;;;;;;;19.50;85.85;100063.86;665782;1272;125286;-77
2023/09/12 23:42:15;;;;;;;;;;;;;;;19.41;85.33;100056.48;665723;1271;125100;-76
2023/09/12 23:57:19;;;;;;;;;;;;;;;19.24;86.21;100052.11;665535;1269;125451;-76
